Time;durP1;ratioP1;P1;durP2;ratioP2;P2;SDS_P1;SDS_P2;PMS_P1;PMS_P2;Temp;Humidity;BMP_temperature;BMP_pressure;BME280_temperature;BME280_humidity;BME280_pressure;Samples;Min_cycle;Max_cycle;Signal;HPM_P1;HPM_P2
2023/06/15 00:00:13;;;;;;;2.80;1.20;;;21.20;54.60;;;;;;5034081;28;20108;-78
2023/06/15 00:02:40;;;;;;;5.63;1.13;;;21.20;54.60;;;;;;5035589;28;20037;-78
2023/06/15 00:05:07;;;;;;;4.20;1.27;;;21.20;54.90;;;;;;5035331;28;20021;-78
2023/06/15 00:07:33;;;;;;;2.65;1.13;;;21.10;55.10;;;;;;5033942;28;20021;-79
2023/06/15 00:09:58;;;;;;;3.45;1.42;;;21.00;55.10;;;;;;5050716;28;20428;-79
2023/06/15 00:12:24;;;;;;;3.22;1.38;;;21.00;55.50;;;;;;5050482;28;20057;-79
2023/06/15 00:14:49;;;;;;;3.42;1.00;;;20.90;56.40;;;;;;5035085;28;20032;-79
2023/06/15 00:17:15;;;;;;;5.18;1.52;;;20.80;56.10;;;;;;5050613;28;20363;-79
2023/06/15 00:19:41;;;;;;;2.20;1.15;;;20.80;56.50;;;;;;5035046;28;20375;-79
2023/06/15 00:22:09;;;;;;;4.20;1.40;;;20.80;56.70;;;;;;5033854;28;20041;-78
2023/06/15 00:24:35;;;;;;;3.15;1.10;;;20.70;57.00;;;;;;5035020;28;20022;-78
2023/06/15 00:27:01;;;;;;;3.90;1.45;;;20.70;57.60;;;;;;5034832;28;20420;-78
2023/06/15 00:29:26;;;;;;;4.00;1.67;;;20.70;57.60;;;;;;5034839;28;20029;-79
2023/06/15 00:31:52;;;;;;;4.75;1.88;;;20.60;57.90;;;;;;5050354;28;20029;-79
2023/06/15 00:34:17;;;;;;;4.80;2.03;;;20.60;58.00;;;;;;5034817;28;20171;-79
2023/06/15 00:36:43;;;;;;;4.95;1.63;;;20.50;58.20;;;;;;5050141;28;20489;-78
2023/06/15 00:39:09;;;;;;;4.78;1.90;;;20.50;58.60;;;;;;5033381;28;20355;-79
2023/06/15 00:41:41;;;;;;;5.07;1.52;;;20.40;58.80;;;;;;5034571;28;20033;-78
2023/06/15 00:44:07;;;;;;;6.70;1.85;;;20.40;59.00;;;;;;5034454;28;20116;-78
2023/06/15 00:46:34;;;;;;;4.60;1.92;;;20.30;59.20;;;;;;5034701;28;20057;-79
2023/06/15 00:48:59;;;;;;;4.53;1.77;;;20.30;59.40;;;;;;5034377;28;20359;-79
2023/06/15 00:51:26;;;;;;;3.70;1.52;;;20.20;59.50;;;;;;5049841;28;20040;-79
2023/06/15 00:53:52;;;;;;;6.57;1.90;;;20.20;60.00;;;;;;5033074;28;20025;-79
2023/06/15 00:56:18;;;;;;;6.28;2.30;;;20.10;60.10;;;;;;5034467;28;20036;-79
2023/06/15 00:58:44;;;;;;;7.72;2.00;;;20.10;60.60;;;;;;5034243;28;20037;-78
2023/06/15 01:01:10;;;;;;;5.53;1.73;;;20.10;60.80;;;;;;5034230;28;20079;-78
2023/06/15 01:03:35;;;;;;;7.32;2.33;;;20.00;60.90;;;;;;5049367;28;20464;-78
2023/06/15 01:06:13;;;;;;;5.32;1.60;;;20.00;61.20;;;;;;5049345;28;20025;-78
2023/06/15 01:08:42;;;;;;;3.60;1.70;;;19.90;61.60;;;;;;5034782;28;20029;-79
2023/06/15 01:11:08;;;;;;;5.07;2.13;;;19.90;61.60;;;;;;5033959;28;20065;-78
2023/06/15 01:13:35;;;;;;;4.50;1.80;;;19.90;61.80;;;;;;5034114;28;20462;-78
2023/06/15 01:16:05;;;;;;;6.03;1.95;;;19.90;62.50;;;;;;5033941;28;20026;-79
2023/06/15 01:18:33;;;;;;;3.78;2.00;;;19.80;62.50;;;;;;5033961;28;20466;-78
2023/06/15 01:21:01;;;;;;;6.88;2.15;;;19.80;62.70;;;;;;5049031;28;20034;-79
2023/06/15 01:23:41;;;;;;;9.88;2.38;;;19.70;62.80;;;;;;5032474;28;20033;-78
2023/06/15 01:26:10;;;;;;;8.55;2.42;;;19.70;63.10;;;;;;5033854;28;20123;-78
2023/06/15 01:28:40;;;;;;;5.00;1.95;;;19.70;63.20;;;;;;5032487;28;20030;-77
2023/06/15 01:31:08;;;;;;;4.03;1.92;;;19.70;63.30;;;;;;5049030;28;20032;-78
2023/06/15 01:33:33;;;;;;;4.68;2.38;;;19.60;63.80;;;;;;5048718;28;20037;-79
2023/06/15 01:35:59;;;;;;;6.07;2.35;;;19.60;64.20;;;;;;5049395;28;20478;-78
2023/06/15 01:38:29;;;;;;;5.75;2.17;;;19.60;64.50;;;;;;5033884;28;20040;-78
2023/06/15 01:40:56;;;;;;;7.68;1.90;;;19.60;64.50;;;;;;5033466;28;20512;-78
2023/06/15 01:43:27;;;;;;;7.55;2.17;;;19.60;64.50;;;;;;5033572;28;20033;-78
2023/06/15 01:45:55;;;;;;;7.25;2.65;;;19.60;64.90;;;;;;5033442;28;20037;-77
2023/06/15 01:48:21;;;;;;;6.20;2.80;;;19.50;64.90;;;;;;5033502;28;20508;-78
2023/06/15 01:50:49;;;;;;;6.22;2.55;;;19.50;65.10;;;;;;5032045;28;20017;-78
2023/06/15 01:53:15;;;;;;;5.43;2.33;;;19.50;65.40;;;;;;5033422;28;20385;-78
2023/06/15 01:55:41;;;;;;;3.97;2.08;;;19.50;65.70;;;;;;5048866;28;20056;-78
2023/06/15 01:58:07;;;;;;;5.20;2.25;;;19.40;65.70;;;;;;5048590;28;20486;-77
2023/06/15 02:00:33;;;;;;;9.20;2.40;;;19.40;65.90;;;;;;5031978;28;20044;-77
2023/06/15 02:02:59;;;;;;;5.38;2.30;;;19.40;66.30;;;;;;5033200;28;20033;-78
2023/06/15 02:05:25;;;;;;;5.78;2.65;;;19.40;66.30;;;;;;5048900;28;20029;-79
2023/06/15 02:07:50;;;;;;;5.32;2.13;;;19.30;66.60;;;;;;5033404;28;20025;-79
2023/06/15 02:10:18;;;;;;;5.28;2.13;;;19.30;66.90;;;;;;5033240;28;20033;-78
2023/06/15 02:12:44;;;;;;;5.70;2.40;;;19.30;67.10;;;;;;5033082;28;20524;-79
2023/06/15 02:15:10;;;;;;;4.35;2.10;;;19.30;67.00;;;;;;5048547;28;20030;-78
2023/06/15 02:17:39;;;;;;;6.22;2.75;;;19.30;67.20;;;;;;5048685;28;20040;-79
2023/06/15 02:20:10;;;;;;;5.22;2.20;;;19.20;67.20;;;;;;5031957;28;20021;-79
2023/06/15 02:22:36;;;;;;;5.30;2.95;;;19.20;67.40;;;;;;5048409;28;20033;-79
2023/06/15 02:25:03;;;;;;;5.75;2.28;;;19.20;67.60;;;;;;5033033;28;20528;-80
2023/06/15 02:27:28;;;;;;;6.13;2.08;;;19.10;67.60;;;;;;5031812;28;20032;-77
2023/06/15 02:29:55;;;;;;;5.70;2.53;;;19.20;67.90;;;;;;5048381;28;20030;-77
2023/06/15 02:32:34;;;;;;;6.20;2.20;;;19.10;68.10;;;;;;5032894;28;20034;-76
2023/06/15 02:35:05;;;;;;;5.07;2.22;;;19.10;68.30;;;;;;5048394;28;20068;-77
2023/06/15 02:37:30;;;;;;;4.47;2.50;;;19.10;68.30;;;;;;5031801;28;20034;-78
2023/06/15 02:39:56;;;;;;;5.53;2.35;;;19.00;68.50;;;;;;5048221;28;20025;-78
2023/06/15 02:42:22;;;;;;;6.57;2.80;;;19.00;68.80;;;;;;5032881;28;20035;-77
2023/06/15 02:44:47;;;;;;;7.35;2.88;;;19.00;69.10;;;;;;5049222;28;20057;-77
2023/06/15 02:47:13;;;;;;;7.22;2.25;;;19.00;69.10;;;;;;5051956;28;20026;-77
2023/06/15 02:49:38;;;;;;;6.35;2.65;;;18.90;69.20;;;;;;5052308;28;20033;-78
2023/06/15 02:52:04;;;;;;;6.22;2.60;;;18.90;69.30;;;;;;5051948;28;20116;-77
2023/06/15 02:54:30;;;;;;;7.85;2.70;;;18.90;70.20;;;;;;5036551;28;20060;-77
2023/06/15 02:56:56;;;;;;;10.60;2.22;;;18.80;69.70;;;;;;5051778;28;20411;-78
2023/06/15 02:59:25;;;;;;;5.40;2.35;;;18.80;69.80;;;;;;5035313;28;20029;-78
2023/06/15 03:01:52;;;;;;;5.63;2.72;;;18.80;69.90;;;;;;5051313;28;20025;-78
2023/06/15 03:04:21;;;;;;;7.93;2.58;;;18.70;70.00;;;;;;5035214;28;20041;-78
2023/06/15 03:06:50;;;;;;;8.52;2.60;;;18.70;70.20;;;;;;5051704;28;20589;-78
2023/06/15 03:09:17;;;;;;;6.00;2.33;;;18.70;70.30;;;;;;5051926;28;20382;-78
2023/06/15 03:11:43;;;;;;;6.55;2.50;;;18.70;70.40;;;;;;5036416;28;20044;-78
2023/06/15 03:14:12;;;;;;;4.97;2.45;;;18.70;70.50;;;;;;5036154;28;20036;-78
2023/06/15 03:16:46;;;;;;;5.90;2.58;;;18.60;70.60;;;;;;5051610;28;20034;-78
2023/06/15 03:19:15;;;;;;;6.32;2.80;;;18.60;70.80;;;;;;5050520;28;20028;-78
2023/06/15 03:21:42;;;;;;;6.57;2.85;;;18.60;70.90;;;;;;5034744;28;20053;-78
2023/06/15 03:24:08;;;;;;;5.20;2.28;;;18.60;71.10;;;;;;5051527;28;20107;-78
2023/06/15 03:26:37;;;;;;;5.00;2.42;;;18.50;71.80;;;;;;5036156;28;20024;-78
2023/06/15 03:29:03;;;;;;;5.93;2.15;;;18.50;71.20;;;;;;5034730;28;20029;-78
2023/06/15 03:31:33;;;;;;;6.78;2.28;;;18.50;71.20;;;;;;5035908;28;20037;-78
2023/06/15 03:34:00;;;;;;;7.63;2.58;;;18.50;71.30;;;;;;5035810;28;20053;-79
2023/06/15 03:36:29;;;;;;;4.90;2.35;;;18.50;71.30;;;;;;5051418;28;20029;-79
2023/06/15 03:38:56;;;;;;;5.60;2.88;;;18.50;71.20;;;;;;5035977;28;20026;-78
2023/06/15 03:41:22;;;;;;;5.32;2.10;;;18.50;71.30;;;;;;5035826;28;20075;-78
2023/06/15 03:43:47;;;;;;;9.10;2.67;;;18.40;71.20;;;;;;5051122;28;20108;-79
2023/06/15 03:46:13;;;;;;;5.60;2.85;;;18.50;71.40;;;;;;5035829;28;20497;-78
2023/06/15 03:48:39;;;;;;;5.10;2.53;;;18.50;71.30;;;;;;5050991;28;20021;-78
2023/06/15 03:51:05;;;;;;;5.40;2.63;;;18.40;71.40;;;;;;5051025;28;20031;-78
2023/06/15 03:53:31;;;;;;;7.63;2.30;;;18.40;71.40;;;;;;5050935;28;20393;-78
2023/06/15 03:55:56;;;;;;;5.10;2.28;;;18.40;71.40;;;;;;5035380;28;20033;-78
2023/06/15 03:58:24;;;;;;;6.03;2.30;;;18.40;71.40;;;;;;5050700;28;20040;-78
2023/06/15 04:00:50;;;;;;;5.28;2.05;;;18.30;71.30;;;;;;5050671;28;20458;-78
2023/06/15 04:03:16;;;;;;;11.93;2.42;;;18.30;71.40;;;;;;5050679;28;20030;-78
2023/06/15 04:05:42;;;;;;;5.63;2.97;;;18.30;71.50;;;;;;5050847;28;20109;-78
2023/06/15 04:08:08;;;;;;;4.63;2.47;;;18.40;71.70;;;;;;5035298;28;20531;-78
2023/06/15 04:10:34;;;;;;;9.70;2.42;;;18.30;71.70;;;;;;5035218;28;20083;-78
2023/06/15 04:13:00;;;;;;;9.25;2.90;;;18.30;71.70;;;;;;5035228;28;20524;-78
2023/06/15 04:15:26;;;;;;;6.57;2.80;;;18.30;71.70;;;;;;5050398;28;20029;-78
2023/06/15 04:17:52;;;;;;;5.53;2.30;;;18.40;71.80;;;;;;5033844;28;20072;-78
2023/06/15 04:20:17;;;;;;;6.88;2.78;;;18.40;71.80;;;;;;5050378;28;20025;-79
2023/06/15 04:22:43;;;;;;;10.73;2.63;;;18.40;71.70;;;;;;5050333;28;20033;-78
2023/06/15 04:25:09;;;;;;;5.40;2.72;;;18.40;71.60;;;;;;5050692;28;20052;-78
2023/06/15 04:27:35;;;;;;;6.40;2.58;;;18.40;71.60;;;;;;5034792;28;20022;-78
2023/06/15 04:30:03;;;;;;;6.45;2.38;;;18.40;71.50;;;;;;5034865;28;20044;-78
2023/06/15 04:32:30;;;;;;;7.18;2.53;;;18.40;71.50;;;;;;5050143;28;20030;-78
2023/06/15 04:35:03;;;;;;;5.18;2.35;;;18.40;71.50;;;;;;5033391;28;20486;-78
2023/06/15 04:37:29;;;;;;;5.40;2.50;;;18.40;71.70;;;;;;5034587;28;20030;-78
2023/06/15 04:39:59;;;;;;;5.05;2.60;;;18.50;71.90;;;;;;5034856;28;20084;-78
2023/06/15 04:42:26;;;;;;;6.40;3.10;;;18.50;71.90;;;;;;5049483;28;20029;-78
2023/06/15 04:44:52;;;;;;;4.32;2.22;;;18.50;71.80;;;;;;5033263;28;20151;-78
2023/06/15 04:47:18;;;;;;;6.05;2.92;;;18.50;71.90;;;;;;5050031;28;20068;-78
2023/06/15 04:49:44;;;;;;;8.15;3.50;;;18.50;72.00;;;;;;5034469;28;20065;-78
2023/06/15 04:52:10;;;;;;;7.35;2.85;;;18.50;72.00;;;;;;5049798;28;20497;-78
2023/06/15 04:54:35;;;;;;;6.85;2.40;;;18.50;72.00;;;;;;5034344;28;20033;-78
2023/06/15 04:57:01;;;;;;;6.43;2.42;;;18.60;72.10;;;;;;5049661;28;20111;-78
2023/06/15 04:59:27;;;;;;;8.65;2.58;;;18.50;72.00;;;;;;5033117;28;20021;-79
2023/06/15 05:01:53;;;;;;;4.57;2.45;;;18.60;72.10;;;;;;5049691;28;20436;-79
2023/06/15 05:04:21;;;;;;;5.68;2.78;;;18.60;72.00;;;;;;5049477;28;20498;-79
2023/06/15 05:06:46;;;;;;;5.70;2.70;;;18.60;72.00;;;;;;5032560;28;20459;-78
2023/06/15 05:09:12;;;;;;;7.78;3.33;;;18.60;72.00;;;;;;5033649;28;20029;-78
2023/06/15 05:11:38;;;;;;;12.30;3.13;;;18.60;72.00;;;;;;5049353;28;20033;-77
2023/06/15 05:14:04;;;;;;;4.10;2.08;;;18.60;71.90;;;;;;5033914;28;20143;-77
2023/06/15 05:16:30;;;;;;;8.35;3.00;;;18.70;72.00;;;;;;5032866;28;20429;-78
2023/06/15 05:18:55;;;;;;;4.43;2.13;;;18.70;71.90;;;;;;5049282;28;20036;-78
2023/06/15 05:21:22;;;;;;;8.18;2.88;;;18.70;71.70;;;;;;5049356;28;20029;-78
2023/06/15 05:23:47;;;;;;;5.50;2.97;;;18.80;71.60;;;;;;5032430;28;20428;-78
2023/06/15 05:26:13;;;;;;;7.97;2.92;;;18.80;71.40;;;;;;5032419;28;20018;-78
2023/06/15 05:28:39;;;;;;;7.20;2.90;;;18.80;71.30;;;;;;5049158;28;20021;-78
2023/06/15 05:31:08;;;;;;;4.50;2.70;;;18.80;71.20;;;;;;5023451;28;20413;-78
2023/06/15 05:33:34;;;;;;;8.95;2.83;;;18.90;71.10;;;;;;5045843;28;20025;-79
2023/06/15 05:36:00;;;;;;;6.53;2.47;;;18.90;71.10;;;;;;5025675;28;20363;-79
2023/06/15 05:38:26;;;;;;;5.15;2.67;;;18.90;71.00;;;;;;5032916;28;20039;-79
2023/06/15 05:40:51;;;;;;;7.60;3.33;;;18.90;71.00;;;;;;5035162;28;20025;-80
2023/06/15 05:43:17;;;;;;;6.28;2.78;;;19.00;71.60;;;;;;5016579;28;20026;-79
2023/06/15 05:45:43;;;;;;;7.18;2.75;;;19.00;71.00;;;;;;5031340;28;20501;-79
2023/06/15 05:48:08;;;;;;;6.28;2.78;;;19.00;71.00;;;;;;5040879;28;20093;-79
2023/06/15 05:50:35;;;;;;;6.60;2.53;;;19.00;71.00;;;;;;5025801;28;20053;-79
2023/06/15 05:53:01;;;;;;;8.60;2.67;;;19.10;71.10;;;;;;5042078;28;20017;-79
2023/06/15 05:55:27;;;;;;;5.68;2.97;;;19.10;71.30;;;;;;5024409;28;20087;-77
2023/06/15 05:57:52;;;;;;;7.85;3.55;;;19.20;71.10;;;;;;5041809;28;20044;-76
2023/06/15 06:00:18;;;;;;;8.35;3.45;;;19.20;71.00;;;;;;5041123;28;20060;-77
2023/06/15 06:02:44;;;;;;;5.38;2.60;;;19.20;70.90;;;;;;5027926;28;20482;-77
2023/06/15 06:05:10;;;;;;;6.93;2.50;;;19.30;70.80;;;;;;5040373;28;20040;-76
2023/06/15 06:07:35;;;;;;;11.45;2.97;;;19.30;70.70;;;;;;5045969;28;20383;-76
2023/06/15 06:10:01;;;;;;;6.57;3.38;;;19.40;70.60;;;;;;5052830;28;20059;-77
2023/06/15 06:12:26;;;;;;;5.63;3.00;;;19.40;71.10;;;;;;5051444;28;20049;-77
2023/06/15 06:14:52;;;;;;;6.82;3.17;;;19.40;70.40;;;;;;5051490;28;20456;-76
2023/06/15 06:17:18;;;;;;;6.55;3.05;;;19.40;70.20;;;;;;5047836;28;20067;-76
2023/06/15 06:19:43;;;;;;;7.85;3.30;;;19.50;70.00;;;;;;5051602;28;20040;-76
2023/06/15 06:22:09;;;;;;;8.75;2.67;;;19.60;69.90;;;;;;5053448;28;20444;-76
2023/06/15 06:24:34;;;;;;;4.85;2.65;;;19.60;69.70;;;;;;5054067;28;20043;-76
2023/06/15 06:27:00;;;;;;;8.93;3.17;;;19.70;69.60;;;;;;5037914;28;20033;-76
2023/06/15 06:29:26;;;;;;;7.63;3.67;;;19.70;69.40;;;;;;5055378;28;20409;-76
2023/06/15 06:31:52;;;;;;;5.95;2.83;;;19.70;69.30;;;;;;5055049;28;20021;-76
2023/06/15 06:34:17;;;;;;;9.55;3.03;;;19.80;69.40;;;;;;5044006;28;20041;-76
2023/06/15 06:36:43;;;;;;;5.82;2.33;;;19.80;69.30;;;;;;5047860;28;20044;-76
2023/06/15 06:39:09;;;;;;;6.55;2.63;;;19.80;69.20;;;;;;5055184;28;20029;-76
2023/06/15 06:41:34;;;;;;;10.98;2.67;;;19.90;69.10;;;;;;5054781;28;20726;-76
2023/06/15 06:44:00;;;;;;;8.25;3.25;;;19.90;68.80;;;;;;5055270;28;20029;-76
2023/06/15 06:46:26;;;;;;;6.45;2.72;;;20.00;68.50;;;;;;5054694;28;20029;-76
2023/06/15 06:48:51;;;;;;;9.32;3.13;;;20.00;68.20;;;;;;5056467;28;20377;-76
2023/06/15 06:51:17;;;;;;;8.70;3.25;;;20.10;67.80;;;;;;5055232;28;20604;-76
2023/06/15 06:53:43;;;;;;;9.50;3.00;;;20.10;67.70;;;;;;5055255;28;20033;-76
2023/06/15 06:56:09;;;;;;;4.68;2.67;;;20.20;67.70;;;;;;5038259;28;20025;-77
2023/06/15 06:58:34;;;;;;;6.78;3.00;;;20.20;67.60;;;;;;5056192;28;20106;-76
2023/06/15 07:01:00;;;;;;;6.95;2.78;;;20.30;67.60;;;;;;5056010;28;20029;-76
2023/06/15 07:03:26;;;;;;;15.95;3.47;;;20.30;67.10;;;;;;5056141;28;20147;-76
2023/06/15 07:05:51;;;;;;;8.02;3.60;;;20.40;67.10;;;;;;5054980;28;20071;-76
2023/06/15 07:08:18;;;;;;;15.55;3.20;;;20.40;66.90;;;;;;5053344;28;20474;-76
2023/06/15 07:10:43;;;;;;;6.57;3.17;;;20.50;66.90;;;;;;5055526;28;20036;-76
2023/06/15 07:13:09;;;;;;;4.57;2.60;;;20.50;66.60;;;;;;5055004;28;20053;-75
2023/06/15 07:15:35;;;;;;;8.77;3.08;;;20.60;66.50;;;;;;5054346;28;20040;-76
2023/06/15 07:18:00;;;;;;;6.60;2.63;;;20.60;66.20;;;;;;5055727;28;20037;-76
2023/06/15 07:20:26;;;;;;;6.72;2.50;;;20.70;66.20;;;;;;5038213;28;20083;-76
2023/06/15 07:22:52;;;;;;;6.80;2.80;;;20.70;66.00;;;;;;5055327;28;20033;-75
2023/06/15 07:25:17;;;;;;;30.80;8.05;;;20.80;65.70;;;;;;5054702;28;20060;-75
2023/06/15 07:27:43;;;;;;;7.13;3.45;;;20.80;65.30;;;;;;5055313;28;20028;-76
2023/06/15 07:30:09;;;;;;;6.95;3.10;;;20.90;65.10;;;;;;5053759;28;20025;-76
2023/06/15 07:32:35;;;;;;;5.90;2.75;;;20.90;64.70;;;;;;5055217;28;20457;-75
2023/06/15 07:35:00;;;;;;;6.30;2.85;;;21.00;64.60;;;;;;5055437;28;20036;-75
2023/06/15 07:37:26;;;;;;;6.00;2.80;;;21.10;64.30;;;;;;5054349;28;20474;-76
2023/06/15 07:39:51;;;;;;;5.93;2.50;;;21.10;64.40;;;;;;5054318;28;20030;-76
2023/06/15 07:42:17;;;;;;;7.65;2.85;;;21.20;64.40;;;;;;5052532;28;20367;-76
2023/06/15 07:44:43;;;;;;;7.88;2.40;;;21.30;64.00;;;;;;5043893;28;20029;-76
2023/06/15 07:47:09;;;;;;;6.63;2.30;;;21.30;63.60;;;;;;5045114;28;20049;-75
2023/06/15 07:49:35;;;;;;;8.45;3.00;;;21.40;63.60;;;;;;5037838;28;20120;-75
2023/06/15 07:52:00;;;;;;;7.00;2.97;;;21.50;63.40;;;;;;5017208;28;20451;-75
2023/06/15 07:54:26;;;;;;;5.82;2.55;;;21.50;63.40;;;;;;5017576;28;20030;-75
2023/06/15 07:56:51;;;;;;;4.97;2.42;;;21.60;63.20;;;;;;5033978;28;20105;-79
2023/06/15 07:59:17;;;;;;;7.43;2.72;;;21.60;63.00;;;;;;5017773;28;20217;-79
2023/06/15 08:01:43;;;;;;;7.28;2.70;;;21.70;62.30;;;;;;5033766;28;20084;-79
2023/06/15 08:04:09;;;;;;;10.00;2.70;;;21.80;62.10;;;;;;5034441;28;20032;-80
2023/06/15 08:06:35;;;;;;;5.88;2.40;;;21.80;61.70;;;;;;5053611;28;20434;-79
2023/06/15 08:09:02;;;;;;;6.88;2.83;;;21.90;61.50;;;;;;5044472;28;20060;-79
2023/06/15 08:11:28;;;;;;;6.05;2.53;;;22.00;61.40;;;;;;5033597;28;20087;-79
2023/06/15 08:13:53;;;;;;;5.72;2.60;;;22.10;61.10;;;;;;5034382;28;20076;-79
2023/06/15 08:16:19;;;;;;;4.53;2.53;;;22.10;60.90;;;;;;5033685;28;20088;-79
2023/06/15 08:18:45;;;;;;;4.28;2.20;;;22.20;60.80;;;;;;5018333;28;20389;-79
2023/06/15 08:21:12;;;;;;;7.82;3.28;;;22.30;60.90;;;;;;5046418;28;20036;-79
2023/06/15 08:23:38;;;;;;;4.15;1.80;;;22.30;60.60;;;;;;5053236;28;20067;-79
2023/06/15 08:26:03;;;;;;;3.97;2.08;;;22.40;60.40;;;;;;5053394;28;20021;-79
2023/06/15 08:28:29;;;;;;;7.60;2.85;;;22.40;60.00;;;;;;5047236;28;20316;-79
2023/06/15 08:30:55;;;;;;;6.88;2.13;;;22.40;59.90;;;;;;5033395;28;20025;-79
2023/06/15 08:33:20;;;;;;;5.28;1.90;;;22.50;59.70;;;;;;5034655;28;20057;-79
2023/06/15 08:35:46;;;;;;;5.28;2.15;;;22.50;59.50;;;;;;5039558;28;20024;-80
2023/06/15 08:38:12;;;;;;;5.75;2.00;;;22.50;59.40;;;;;;5051136;28;20044;-79
2023/06/15 08:40:37;;;;;;;3.90;1.52;;;22.60;59.20;;;;;;5047476;28;20033;-79
2023/06/15 08:43:06;;;;;;;4.95;1.95;;;22.60;58.90;;;;;;5032211;28;20402;-80
2023/06/15 08:45:40;;;;;;;5.15;2.10;;;22.70;58.70;;;;;;5037178;28;20048;-79
2023/06/15 08:48:09;;;;;;;5.38;2.33;;;22.70;58.40;;;;;;5045670;28;20017;-80
2023/06/15 08:50:37;;;;;;;3.83;1.95;;;22.70;58.30;;;;;;5035507;28;20075;-79
2023/06/15 08:53:05;;;;;;;5.72;1.88;;;22.80;58.20;;;;;;5034372;28;20029;-79
2023/06/15 08:55:32;;;;;;;5.07;1.90;;;22.80;57.90;;;;;;5034259;28;20053;-80
2023/06/15 08:57:59;;;;;;;3.80;1.95;;;22.90;57.70;;;;;;5034153;28;20079;-79
2023/06/15 09:00:25;;;;;;;5.05;1.95;;;23.00;57.50;;;;;;5034159;28;20476;-79
2023/06/15 09:02:54;;;;;;;3.38;1.85;;;23.00;57.10;;;;;;5032978;28;20113;-79
2023/06/15 09:05:19;;;;;;;6.05;1.63;;;23.20;56.80;;;;;;5039144;28;20055;-80
2023/06/15 09:07:45;;;;;;;5.13;1.90;;;23.20;56.40;;;;;;5053797;28;20029;-80
2023/06/15 09:10:15;;;;;;;5.15;2.08;;;23.30;56.30;;;;;;5032340;28;20033;-80
2023/06/15 09:12:44;;;;;;;5.47;1.95;;;23.40;56.10;;;;;;5033683;28;20076;-80
2023/06/15 09:15:14;;;;;;;4.53;1.80;;;23.50;56.00;;;;;;5033913;28;20544;-80
2023/06/15 09:17:41;;;;;;;5.57;1.98;;;23.60;55.80;;;;;;5036065;28;20432;-80
2023/06/15 09:20:08;;;;;;;5.40;2.20;;;23.70;55.60;;;;;;5052812;28;20033;-80
2023/06/15 09:22:41;;;;;;;4.72;1.90;;;23.80;55.40;;;;;;5052264;28;20025;-78
2023/06/15 09:25:16;;;;;;;6.80;2.10;;;23.90;55.00;;;;;;5053724;28;20032;-79
2023/06/15 09:27:51;;;;;;;7.30;2.17;;;24.00;54.90;;;;;;5053774;28;20025;-80
2023/06/15 09:30:17;;;;;;;3.55;1.42;;;24.10;54.80;;;;;;5053630;28;20075;-80
2023/06/15 09:32:43;;;;;;;4.15;1.75;;;24.30;54.30;;;;;;5019343;28;20456;-79
2023/06/15 09:35:09;;;;;;;5.03;2.00;;;24.40;54.00;;;;;;5052074;28;20033;-79
2023/06/15 09:37:35;;;;;;;4.95;1.65;;;24.50;53.60;;;;;;5053633;28;20060;-79
2023/06/15 09:40:04;;;;;;;4.55;1.60;;;24.60;53.00;;;;;;5052995;28;20416;-79
2023/06/15 09:42:30;;;;;;;4.28;1.67;;;24.80;52.90;;;;;;5052078;28;20032;-79
2023/06/15 09:45:00;;;;;;;5.22;2.10;;;24.90;52.60;;;;;;5052148;28;20025;-80
2023/06/15 09:47:30;;;;;;;4.65;1.73;;;25.00;52.30;;;;;;5053241;28;20029;-80
2023/06/15 09:49:57;;;;;;;8.40;2.17;;;25.20;52.20;;;;;;5048426;28;20052;-80
2023/06/15 09:52:23;;;;;;;5.95;1.40;;;25.30;52.20;;;;;;5048553;28;20025;-79
2023/06/15 09:54:50;;;;;;;4.15;1.65;;;25.50;52.00;;;;;;5052575;28;20044;-80
2023/06/15 09:57:18;;;;;;;4.03;1.58;;;25.60;51.50;;;;;;5037119;28;21159;-80
2023/06/15 09:59:45;;;;;;;5.57;2.00;;;25.70;51.40;;;;;;5043784;28;20021;-79
2023/06/15 10:02:12;;;;;;;3.72;1.63;;;25.80;51.10;;;;;;5040404;28;20037;-81
2023/06/15 10:04:40;;;;;;;5.90;1.80;;;25.90;50.90;;;;;;5040715;28;20040;-79
2023/06/15 10:07:11;;;;;;;5.45;1.95;;;26.00;50.60;;;;;;5042349;28;20043;-80
2023/06/15 10:09:46;;;;;;;3.47;1.35;;;26.20;50.30;;;;;;5044285;28;20082;-80
2023/06/15 10:12:16;;;;;;;3.88;1.70;;;26.30;50.00;;;;;;5041633;28;20095;-79
2023/06/15 10:14:47;;;;;;;4.57;1.80;;;26.40;49.80;;;;;;5034203;28;20079;-79
2023/06/15 10:17:16;;;;;;;3.42;1.70;;;26.50;49.40;;;;;;5033184;28;20064;-79
2023/06/15 10:19:46;;;;;;;3.20;1.45;;;26.50;49.10;;;;;;5033199;28;20017;-79
2023/06/15 10:22:20;;;;;;;3.80;1.50;;;26.60;48.70;;;;;;5040099;28;20040;-79
2023/06/15 10:24:46;;;;;;;4.70;1.70;;;26.60;48.30;;;;;;5051753;28;20036;-79
2023/06/15 10:27:12;;;;;;;6.18;2.05;;;26.60;48.30;;;;;;5041382;28;20021;-81
2023/06/15 10:30:15;;;;;;;4.93;1.65;;;26.70;48.40;;;;;;5042780;28;20021;-80
2023/06/15 10:33:18;;;;;;;2.72;1.40;;;26.70;48.10;;;;;;5051571;28;20060;-81
2023/06/15 10:36:19;;;;;;;3.70;1.80;;;26.80;48.00;;;;;;5044168;28;20110;-80
2023/06/15 10:38:54;;;;;;;5.78;1.67;;;26.90;47.90;;;;;;5052819;28;20072;-81
2023/06/15 10:41:20;;;;;;;4.43;1.42;;;27.00;48.00;;;;;;5051572;28;20385;-80
2023/06/15 10:44:03;;;;;;;4.05;1.33;;;27.00;47.90;;;;;;5051234;28;20036;-78
2023/06/15 10:46:30;;;;;;;4.97;1.27;;;27.20;47.60;;;;;;5050690;28;20025;-78
2023/06/15 10:49:06;;;;;;;3.10;1.27;;;27.30;47.40;;;;;;5046998;28;20036;-78
2023/06/15 10:51:51;;;;;;;6.30;1.48;;;27.50;47.00;;;;;;5032687;28;20025;-78
2023/06/15 10:54:26;;;;;;;8.70;1.80;;;27.60;46.10;;;;;;5052100;28;20020;-79
2023/06/15 10:56:57;;;;;;;4.10;1.58;;;27.90;46.40;;;;;;5043467;28;20033;-78
2023/06/15 10:59:42;;;;;;;2.50;1.30;;;28.10;46.40;;;;;;5051224;28;20500;-78
2023/06/15 11:02:26;;;;;;;7.88;1.67;;;28.30;46.00;;;;;;5052599;28;20063;-78
2023/06/15 11:04:52;;;;;;;6.65;1.38;;;28.60;45.30;;;;;;5052366;28;20032;-78
2023/06/15 11:07:28;;;;;;;3.05;1.25;;;28.70;45.30;;;;;;5055847;28;20104;-78
2023/06/15 11:09:57;;;;;;;6.22;1.15;;;28.90;44.80;;;;;;5053777;28;20107;-78
2023/06/15 11:12:37;;;;;;;5.15;1.48;;;29.10;44.80;;;;;;5054619;28;20024;-78
2023/06/15 11:15:04;;;;;;;4.85;1.40;;;29.30;44.70;;;;;;5055618;28;20037;-78
2023/06/15 11:17:31;;;;;;;3.45;1.50;;;29.50;44.80;;;;;;5055897;28;20108;-78
2023/06/15 11:20:00;;;;;;;6.13;1.67;;;29.70;44.30;;;;;;5054946;28;20044;-79
2023/06/15 11:22:28;;;;;;;2.55;1.20;;;29.90;43.80;;;;;;5047590;28;20036;-78
2023/06/15 11:24:55;;;;;;;3.10;1.23;;;30.10;43.40;;;;;;5053640;28;20040;-78
2023/06/15 11:27:22;;;;;;;3.80;1.33;;;30.30;43.60;;;;;;5051429;28;20091;-78
2023/06/15 11:29:55;;;;;;;3.33;1.10;;;30.50;42.70;;;;;;5052657;28;20017;-79
2023/06/15 11:32:26;;;;;;;3.92;1.38;;;30.70;42.10;;;;;;5047660;28;20025;-79
2023/06/15 11:34:56;;;;;;;3.25;1.40;;;30.90;41.80;;;;;;5046952;28;20025;-79
2023/06/15 11:37:25;;;;;;;3.03;1.02;;;31.10;41.40;;;;;;5050445;28;20421;-78
2023/06/15 11:39:51;;;;;;;2.20;1.10;;;31.30;41.10;;;;;;5055175;28;20029;-78
2023/06/15 11:42:20;;;;;;;3.42;1.10;;;31.40;40.90;;;;;;5050035;28;20033;-78
2023/06/15 11:44:49;;;;;;;5.53;1.23;;;31.50;40.60;;;;;;5055152;28;20067;-78
2023/06/15 11:47:14;;;;;;;2.63;1.30;;;31.60;40.40;;;;;;5055088;28;20539;-79
2023/06/15 11:49:40;;;;;;;3.17;1.27;;;31.70;40.20;;;;;;5053634;28;20033;-79
2023/06/15 11:52:06;;;;;;;4.15;1.50;;;31.70;40.10;;;;;;5053187;28;20079;-79
2023/06/15 11:54:32;;;;;;;4.03;1.42;;;31.70;39.80;;;;;;5054398;28;20547;-78
2023/06/15 11:57:00;;;;;;;3.08;1.17;;;31.70;39.70;;;;;;5053467;28;20077;-78
2023/06/15 11:59:45;;;;;;;7.95;1.77;;;31.80;39.30;;;;;;5031606;28;20040;-79
2023/06/15 12:02:12;;;;;;;4.25;1.17;;;31.90;39.10;;;;;;5046654;28;20158;-78
2023/06/15 12:04:38;;;;;;;2.80;1.27;;;31.90;39.10;;;;;;5051549;28;20086;-78
2023/06/15 12:07:04;;;;;;;4.90;1.45;;;32.00;38.90;;;;;;5052739;28;20104;-76
2023/06/15 12:09:31;;;;;;;3.50;1.42;;;32.10;38.60;;;;;;5051431;28;20029;-75
2023/06/15 12:11:57;;;;;;;3.15;1.10;;;32.40;38.10;;;;;;5054107;28;20032;-76
2023/06/15 12:14:24;;;;;;;2.58;1.27;;;32.60;37.60;;;;;;5036387;28;20489;-76
2023/06/15 12:16:52;;;;;;;2.70;1.10;;;32.70;37.20;;;;;;5043003;28;20108;-77
2023/06/15 12:19:20;;;;;;;2.72;1.23;;;32.70;37.00;;;;;;5050310;28;20151;-77
2023/06/15 12:21:47;;;;;;;3.38;1.40;;;32.60;36.90;;;;;;5036492;28;20559;-76
2023/06/15 12:24:18;;;;;;;3.63;1.30;;;32.50;36.80;;;;;;5036570;28;20025;-76
2023/06/15 12:26:57;;;;;;;5.35;1.30;;;32.40;36.50;;;;;;5052328;28;20033;-76
2023/06/15 12:29:24;;;;;;;2.53;1.00;;;32.40;36.30;;;;;;5052963;28;20095;-76
2023/06/15 12:31:53;;;;;;;3.33;1.33;;;32.40;36.60;;;;;;5052850;28;20504;-76
2023/06/15 12:34:24;;;;;;;3.45;1.35;;;32.40;37.10;;;;;;5052690;28;20109;-77
2023/06/15 12:36:51;;;;;;;2.30;1.10;;;32.50;37.10;;;;;;5052366;28;20050;-76
2023/06/15 12:39:20;;;;;;;4.57;1.13;;;32.80;37.00;;;;;;5053659;28;20029;-76
2023/06/15 12:41:46;;;;;;;3.28;1.35;;;33.00;36.50;;;;;;5053551;28;20116;-76
2023/06/15 12:44:12;;;;;;;5.60;1.17;;;33.10;35.80;;;;;;5044876;28;20104;-76
2023/06/15 12:46:39;;;;;;;3.30;1.05;;;33.00;35.40;;;;;;5045888;28;20148;-76